Time;durP1;ratioP1;P1;durP2;ratioP2;P2;SDS_P1;SDS_P2;PMS_P1;PMS_P2;Temp;Humidity;BMP_temperature;BMP_pressure;BME280_temperature;BME280_humidity;BME280_pressure;Samples;Min_cycle;Max_cycle;Signal;HPM_P1;HPM_P2
2023/09/21 00:01:06;;;;;;;2.17;1.20;;;20.70;90.20;;;;;;5093688;28;20024;-79
2023/09/21 00:03:35;;;;;;;2.65;1.40;;;20.60;90.10;;;;;;5093992;28;20020;-81
2023/09/21 00:06:01;;;;;;;2.97;1.42;;;20.70;90.20;;;;;;5092834;28;20392;-79
2023/09/21 00:08:27;;;;;;;2.88;1.40;;;20.60;90.10;;;;;;5092972;28;20028;-79
2023/09/21 00:10:54;;;;;;;2.55;1.30;;;20.60;89.90;;;;;;5093934;28;20027;-80
2023/09/21 00:13:26;;;;;;;2.53;1.33;;;20.70;89.90;;;;;;5092360;28;20024;-80
2023/09/21 00:15:55;;;;;;;3.00;1.33;;;20.70;89.90;;;;;;5092599;28;20030;-80
2023/09/21 00:18:21;;;;;;;2.40;1.50;;;20.70;90.00;;;;;;5092595;28;20039;-80
2023/09/21 00:20:52;;;;;;;2.58;1.30;;;20.70;90.10;;;;;;5092546;28;20027;-79
2023/09/21 00:23:20;;;;;;;2.30;1.38;;;20.70;90.00;;;;;;5092631;28;20391;-80
2023/09/21 00:25:47;;;;;;;2.20;1.30;;;20.70;90.10;;;;;;5093697;28;20024;-80
2023/09/21 00:28:12;;;;;;;2.50;1.38;;;20.70;90.00;;;;;;5092440;28;20020;-80
2023/09/21 00:30:39;;;;;;;2.30;1.25;;;20.70;90.10;;;;;;5092440;28;20411;-79
2023/09/21 00:33:07;;;;;;;2.53;1.40;;;20.70;90.10;;;;;;5091962;28;20032;-79
2023/09/21 00:35:39;;;;;;;3.33;1.50;;;20.60;90.10;;;;;;5092252;28;20055;-80
2023/09/21 00:38:14;;;;;;;1.80;1.20;;;20.70;90.00;;;;;;5092224;28;20016;-79
2023/09/21 00:40:40;;;;;;;2.80;1.55;;;20.70;89.70;;;;;;5092454;28;20408;-80
2023/09/21 00:43:07;;;;;;;2.58;1.35;;;20.70;89.80;;;;;;5092834;28;20027;-80
2023/09/21 00:45:38;;;;;;;2.13;1.30;;;20.70;90.10;;;;;;5092113;28;20396;-80
2023/09/21 00:48:12;;;;;;;2.70;1.30;;;20.60;90.00;;;;;;5092026;28;20077;-80
2023/09/21 00:50:41;;;;;;;2.35;1.35;;;20.60;90.00;;;;;;5092114;28;20034;-80
2023/09/21 00:53:12;;;;;;;3.40;1.25;;;20.60;90.00;;;;;;5091575;28;20073;-80
2023/09/21 00:55:38;;;;;;;2.28;1.30;;;20.60;90.00;;;;;;5092005;28;20016;-80
2023/09/21 00:58:05;;;;;;;1.98;1.27;;;20.60;90.00;;;;;;5091767;28;20480;-80
2023/09/21 01:00:31;;;;;;;2.60;1.30;;;20.60;89.70;;;;;;5091805;28;20039;-80
2023/09/21 01:03:07;;;;;;;2.63;1.30;;;20.70;90.00;;;;;;5091438;28;20028;-80
2023/09/21 01:05:34;;;;;;;2.42;1.38;;;20.50;90.00;;;;;;5091795;28;20020;-80
2023/09/21 01:08:05;;;;;;;2.97;1.55;;;20.60;89.50;;;;;;5092890;28;20023;-81
2023/09/21 01:10:33;;;;;;;2.55;1.38;;;20.60;90.00;;;;;;5091693;28;20166;-80
2023/09/21 01:12:58;;;;;;;1.90;1.20;;;20.60;90.00;;;;;;5091471;28;20039;-80
2023/09/21 01:15:24;;;;;;;2.22;1.35;;;20.70;90.00;;;;;;5091698;28;20111;-80
2023/09/21 01:17:49;;;;;;;2.38;1.50;;;20.70;90.10;;;;;;5091757;28;20024;-81
2023/09/21 01:20:32;;;;;;;2.30;1.27;;;20.70;90.10;;;;;;5091660;28;20443;-80
2023/09/21 01:23:18;;;;;;;2.40;1.50;;;20.70;90.10;;;;;;5091353;28;20415;-80
2023/09/21 01:25:46;;;;;;;2.15;1.38;;;20.60;90.00;;;;;;5091540;28;20081;-80
2023/09/21 01:28:18;;;;;;;2.95;1.45;;;20.70;90.00;;;;;;5091464;28;20084;-80
2023/09/21 01:30:44;;;;;;;3.33;1.60;;;20.60;90.00;;;;;;5091365;28;20365;-80
2023/09/21 01:33:15;;;;;;;2.75;1.60;;;20.60;89.60;;;;;;5090924;28;20111;-81
2023/09/21 01:35:46;;;;;;;2.20;1.33;;;20.60;89.70;;;;;;5091406;28;20131;-80
2023/09/21 01:38:12;;;;;;;;;;;20.60;89.40;;;;;;5091821;28;20030;-80
2023/09/21 01:40:39;;;;;;;2.70;1.33;;;20.60;89.60;;;;;;5091393;28;19939;-80
2023/09/21 01:43:10;;;;;;;4.28;1.40;;;20.60;89.20;;;;;;5091071;28;20055;-80
2023/09/21 01:45:40;;;;;;;3.45;1.75;;;20.60;89.20;;;;;;5091309;28;20054;-80
2023/09/21 01:48:09;;;;;;;2.08;1.25;;;20.60;88.90;;;;;;5091629;28;20024;-80
2023/09/21 01:50:40;;;;;;;2.40;1.42;;;20.60;89.80;;;;;;5091272;28;20028;-80
2023/09/21 01:53:10;;;;;;;3.30;1.38;;;20.60;89.30;;;;;;5090954;28;20058;-80
2023/09/21 01:55:36;;;;;;;2.35;1.17;;;20.60;89.50;;;;;;5093909;28;20021;-80
2023/09/21 01:58:03;;;;;;;4.53;1.70;;;20.60;89.20;;;;;;5095335;28;20111;-80
2023/09/21 02:00:29;;;;;;;3.10;1.40;;;20.60;89.30;;;;;;5094774;28;20073;-80
2023/09/21 02:02:55;;;;;;;2.40;1.50;;;20.60;88.40;;;;;;5094894;28;20024;-81
2023/09/21 02:05:22;;;;;;;3.40;1.50;;;20.60;88.50;;;;;;5095025;28;20032;-79
2023/09/21 02:07:48;;;;;;;2.22;1.30;;;20.60;88.60;;;;;;5095080;28;20059;-79
2023/09/21 02:10:16;;;;;;;2.97;1.40;;;20.60;88.40;;;;;;5096268;28;20101;-80
2023/09/21 02:12:54;;;;;;;3.45;1.50;;;20.60;89.00;;;;;;5094750;28;20024;-79
2023/09/21 02:15:19;;;;;;;3.65;1.60;;;20.60;89.40;;;;;;5078850;28;20058;-81
2023/09/21 02:17:45;;;;;;;2.53;1.23;;;20.70;89.80;;;;;;5094947;28;20051;-80
2023/09/21 02:20:14;;;;;;;2.70;1.48;;;20.70;89.70;;;;;;5096132;28;20025;-80
2023/09/21 02:22:43;;;;;;;2.95;1.58;;;20.70;89.70;;;;;;5094553;28;20463;-79
2023/09/21 02:25:10;;;;;;;2.28;1.23;;;20.60;89.20;;;;;;5094742;28;20028;-79
2023/09/21 02:27:40;;;;;;;2.40;1.27;;;20.60;88.50;;;;;;5094805;28;20046;-79
2023/09/21 02:30:09;;;;;;;2.55;1.30;;;20.60;89.00;;;;;;5094781;28;20113;-79
2023/09/21 02:32:34;;;;;;;2.45;1.30;;;20.60;88.60;;;;;;5094511;28;20035;-80
2023/09/21 02:35:00;;;;;;;2.95;1.30;;;20.70;88.30;;;;;;5094649;28;20115;-79
2023/09/21 02:37:25;;;;;;;1.98;1.30;;;20.60;88.20;;;;;;5094670;28;20455;-80
2023/09/21 02:39:51;;;;;;;2.50;1.40;;;20.60;88.70;;;;;;5095708;28;20112;-79
2023/09/21 02:42:16;;;;;;;2.63;1.50;;;20.60;89.00;;;;;;5094344;28;20081;-80
2023/09/21 02:44:43;;;;;;;3.28;1.50;;;20.60;88.30;;;;;;5094727;28;20063;-79
2023/09/21 02:47:09;;;;;;;2.83;1.40;;;20.60;88.60;;;;;;5092395;28;20016;-80
2023/09/21 02:49:35;;;;;;;3.25;1.38;;;20.60;89.00;;;;;;5094411;28;20069;-80
2023/09/21 02:52:01;;;;;;;2.67;1.30;;;20.60;88.80;;;;;;5095460;28;20080;-80
2023/09/21 02:54:27;;;;;;;2.38;1.30;;;20.60;88.70;;;;;;5093991;28;20027;-80
2023/09/21 02:56:53;;;;;;;2.65;1.42;;;20.60;89.10;;;;;;5094104;28;20028;-80
2023/09/21 02:59:19;;;;;;;2.10;1.30;;;20.50;88.30;;;;;;5094100;28;20016;-80
2023/09/21 03:01:45;;;;;;;3.47;1.50;;;20.50;88.00;;;;;;5093688;28;20495;-80
2023/09/21 03:04:11;;;;;;;2.03;1.30;;;20.60;88.20;;;;;;5093810;28;20031;-79
2023/09/21 03:06:36;;;;;;;2.17;1.33;;;20.60;88.70;;;;;;5093593;28;20093;-80
2023/09/21 03:09:02;;;;;;;3.38;1.33;;;20.60;89.00;;;;;;5094047;28;20036;-80
2023/09/21 03:11:28;;;;;;;3.15;1.30;;;20.60;89.40;;;;;;5094060;28;20373;-80
2023/09/21 03:13:53;;;;;;;2.47;1.38;;;20.60;89.50;;;;;;5093681;28;20118;-80
2023/09/21 03:16:19;;;;;;;2.78;1.48;;;20.60;89.40;;;;;;5093856;28;20024;-80
2023/09/21 03:18:47;;;;;;;3.80;1.65;;;20.60;89.00;;;;;;5093815;28;20062;-80
2023/09/21 03:21:14;;;;;;;3.03;1.40;;;20.60;88.50;;;;;;5093661;28;20020;-80
2023/09/21 03:23:45;;;;;;;3.17;1.60;;;20.60;88.20;;;;;;5093375;28;20056;-80
2023/09/21 03:26:14;;;;;;;2.63;1.30;;;20.60;88.70;;;;;;5093657;28;20032;-80
2023/09/21 03:28:39;;;;;;;2.53;1.40;;;20.60;89.10;;;;;;5093674;28;20032;-80
2023/09/21 03:31:05;;;;;;;3.22;1.40;;;20.60;89.30;;;;;;5093529;28;20081;-80
2023/09/21 03:33:31;;;;;;;2.92;1.50;;;20.50;89.10;;;;;;5092984;28;20032;-80
2023/09/21 03:35:58;;;;;;;2.40;1.27;;;20.50;89.30;;;;;;5093458;28;20024;-79
2023/09/21 03:38:24;;;;;;;2.85;1.35;;;20.60;88.80;;;;;;5093291;28;20036;-80
2023/09/21 03:40:49;;;;;;;3.22;1.40;;;20.50;89.00;;;;;;5094552;28;20055;-80
2023/09/21 03:43:15;;;;;;;2.28;1.30;;;20.50;88.70;;;;;;5092976;28;20024;-80
2023/09/21 03:45:43;;;;;;;2.88;1.55;;;20.50;87.70;;;;;;5093183;28;20085;-79
2023/09/21 03:48:10;;;;;;;3.13;1.50;;;20.50;88.40;;;;;;5093158;28;20472;-80
2023/09/21 03:50:37;;;;;;;3.50;1.52;;;20.50;89.00;;;;;;5094464;28;20093;-80
2023/09/21 03:53:04;;;;;;;3.00;1.50;;;20.50;87.30;;;;;;5092836;28;20044;-80
2023/09/21 03:55:31;;;;;;;3.25;1.48;;;20.50;87.60;;;;;;5093060;28;20024;-80
2023/09/21 03:57:56;;;;;;;3.90;1.65;;;20.60;87.10;;;;;;5092927;28;20111;-80
2023/09/21 04:00:36;;;;;;;2.75;1.42;;;20.60;87.80;;;;;;5092838;28;20062;-79
2023/09/21 04:03:11;;;;;;;2.40;1.45;;;20.60;88.40;;;;;;5093970;28;20031;-79
2023/09/21 04:05:40;;;;;;;2.38;1.20;;;20.60;88.40;;;;;;5093203;28;20028;-81
2023/09/21 04:08:07;;;;;;;2.10;1.30;;;20.60;89.00;;;;;;5094099;28;20480;-80
2023/09/21 04:10:32;;;;;;;2.80;1.50;;;20.60;89.40;;;;;;5093860;28;20404;-79
2023/09/21 04:12:58;;;;;;;3.08;1.50;;;20.60;89.10;;;;;;5092399;28;20024;-80
2023/09/21 04:15:28;;;;;;;2.47;1.20;;;20.60;89.00;;;;;;5093928;28;20099;-79
2023/09/21 04:17:54;;;;;;;2.95;1.42;;;20.60;88.50;;;;;;5091698;28;20059;-78
2023/09/21 04:20:21;;;;;;;2.95;1.40;;;20.60;89.10;;;;;;5093831;28;20545;-80
2023/09/21 04:22:49;;;;;;;3.20;1.50;;;20.50;88.50;;;;;;5092333;28;20119;-80
2023/09/21 04:25:16;;;;;;;3.45;1.75;;;20.60;89.00;;;;;;5092489;28;20024;-80
2023/09/21 04:27:44;;;;;;;2.88;1.38;;;20.50;89.00;;;;;;5092524;28;20024;-80
2023/09/21 04:30:14;;;;;;;2.30;1.30;;;20.50;88.90;;;;;;5092292;28;20020;-76
2023/09/21 04:32:40;;;;;;;2.45;1.40;;;20.50;88.30;;;;;;5091894;28;20527;-80
2023/09/21 04:35:06;;;;;;;3.33;1.60;;;20.50;89.00;;;;;;5093600;28;20039;-79
2023/09/21 04:37:34;;;;;;;2.33;1.48;;;20.50;89.60;;;;;;5092372;28;20496;-79
2023/09/21 04:40:04;;;;;;;2.50;1.40;;;20.50;87.60;;;;;;5090458;28;20035;-78
2023/09/21 04:42:30;;;;;;;3.13;1.50;;;20.50;88.50;;;;;;5085832;28;20117;-81
2023/09/21 04:44:57;;;;;;;2.63;1.30;;;20.50;87.80;;;;;;5088905;28;20028;-81
2023/09/21 04:47:23;;;;;;;2.63;1.40;;;20.50;87.70;;;;;;5089672;28;20131;-81
2023/09/21 04:49:49;;;;;;;2.60;1.30;;;20.50;88.00;;;;;;5088527;28;20506;-81
2023/09/21 04:52:15;;;;;;;2.95;1.50;;;20.40;87.90;;;;;;5087971;28;20488;-80
2023/09/21 04:54:40;;;;;;;2.67;1.30;;;20.50;87.60;;;;;;5087003;28;20028;-80
2023/09/21 04:57:06;;;;;;;3.53;1.48;;;20.50;87.60;;;;;;5088034;28;20158;-79
2023/09/21 04:59:31;;;;;;;2.83;1.52;;;20.60;88.00;;;;;;5088064;28;20100;-81
2023/09/21 05:01:57;;;;;;;3.53;1.52;;;20.60;88.50;;;;;;5087917;28;20153;-79
2023/09/21 05:04:22;;;;;;;3.15;1.50;;;20.60;88.90;;;;;;5088096;28;20027;-79
2023/09/21 05:06:48;;;;;;;2.65;1.50;;;20.60;89.00;;;;;;5088261;28;20032;-78
2023/09/21 05:09:15;;;;;;;2.47;1.40;;;20.60;88.30;;;;;;5088143;28;20031;-79
2023/09/21 05:11:40;;;;;;;4.50;1.42;;;20.60;88.20;;;;;;5087974;28;20028;-79
2023/09/21 05:14:06;;;;;;;2.22;1.35;;;20.50;87.50;;;;;;5089148;28;20034;-80
2023/09/21 05:16:32;;;;;;;3.63;1.70;;;20.50;87.60;;;;;;5087779;28;20067;-78
2023/09/21 05:18:58;;;;;;;3.10;1.50;;;20.60;88.00;;;;;;5088025;28;20024;-80
2023/09/21 05:21:23;;;;;;;2.47;1.40;;;20.50;87.60;;;;;;5087847;28;20051;-78
2023/09/21 05:23:49;;;;;;;2.33;1.30;;;20.50;87.20;;;;;;5087748;28;20028;-80
2023/09/21 05:26:15;;;;;;;3.22;1.20;;;20.50;87.90;;;;;;5088357;28;20027;-79
2023/09/21 05:28:40;;;;;;;2.60;1.40;;;20.50;88.30;;;;;;5084578;28;20402;-81
2023/09/21 05:31:09;;;;;;;3.47;1.60;;;20.50;87.50;;;;;;5087356;28;20028;-80
2023/09/21 05:33:36;;;;;;;3.40;1.48;;;20.50;87.80;;;;;;5086846;28;20035;-81
2023/09/21 05:36:04;;;;;;;2.65;1.42;;;20.50;87.30;;;;;;5085157;28;20483;-80
2023/09/21 05:38:32;;;;;;;2.50;1.45;;;20.50;87.10;;;;;;5078679;28;20026;-78
2023/09/21 05:41:04;;;;;;;2.35;1.50;;;20.50;86.90;;;;;;5109684;28;20023;-81
2023/09/21 05:43:30;;;;;;;2.63;1.42;;;20.50;87.10;;;;;;5088579;28;20476;-77
2023/09/21 05:45:56;;;;;;;2.78;1.60;;;20.50;87.60;;;;;;5087986;28;20118;-79
2023/09/21 05:48:22;;;;;;;3.00;1.42;;;20.60;88.20;;;;;;5087434;28;20806;-79
2023/09/21 05:50:47;;;;;;;2.60;1.50;;;20.70;86.40;;;;;;5087115;28;20024;-78
2023/09/21 05:53:13;;;;;;;3.28;1.65;;;20.60;86.80;;;;;;5088381;28;20059;-81
2023/09/21 05:55:40;;;;;;;2.67;1.35;;;20.60;86.40;;;;;;5087200;28;20442;-77
2023/09/21 05:58:05;;;;;;;2.47;1.38;;;20.70;86.30;;;;;;5087520;28;20054;-80
2023/09/21 06:00:32;;;;;;;2.25;1.33;;;20.60;86.20;;;;;;5087465;28;20028;-79
2023/09/21 06:02:59;;;;;;;2.92;1.58;;;20.70;86.30;;;;;;5087376;28;20028;-79
2023/09/21 06:05:26;;;;;;;3.53;1.58;;;20.70;86.50;;;;;;5087639;28;20031;-80
2023/09/21 06:07:52;;;;;;;2.63;1.50;;;20.70;86.80;;;;;;5087443;28;20059;-78
2023/09/21 06:10:18;;;;;;;2.75;1.40;;;20.70;87.50;;;;;;5087767;28;20016;-80
2023/09/21 06:12:43;;;;;;;3.03;1.40;;;20.70;87.40;;;;;;5087022;28;20039;-78
2023/09/21 06:15:10;;;;;;;2.47;1.38;;;20.60;87.80;;;;;;5087666;28;20028;-80
2023/09/21 06:17:35;;;;;;;2.50;1.42;;;20.70;88.00;;;;;;5087555;28;20028;-77
2023/09/21 06:20:03;;;;;;;2.03;1.38;;;20.80;88.10;;;;;;5088266;28;20367;-80
2023/09/21 06:22:28;;;;;;;2.42;1.40;;;20.70;88.00;;;;;;5086884;28;20047;-79
2023/09/21 06:24:54;;;;;;;2.65;1.40;;;20.70;88.10;;;;;;5087031;28;20496;-81
2023/09/21 06:27:19;;;;;;;2.42;1.40;;;20.80;88.00;;;;;;5087622;28;20035;-79
2023/09/21 06:29:45;;;;;;;3.13;1.55;;;20.80;88.00;;;;;;5088989;28;20036;-82
2023/09/21 06:32:11;;;;;;;2.80;1.45;;;20.80;87.90;;;;;;5088186;28;20032;-81
2023/09/21 06:34:37;;;;;;;3.50;1.48;;;20.80;87.90;;;;;;5087989;28;20124;-83
2023/09/21 06:37:02;;;;;;;2.10;1.27;;;21.70;88.40;;;;;;5088742;28;20526;-80
2023/09/21 06:39:28;;;;;;;2.55;1.50;;;20.80;87.80;;;;;;5087349;28;20035;-81
2023/09/21 06:41:54;;;;;;;3.38;1.70;;;20.90;87.80;;;;;;5091928;28;20081;-80
2023/09/21 06:44:19;;;;;;;2.35;1.33;;;20.90;87.90;;;;;;5094672;28;20023;-82
2023/09/21 06:46:46;;;;;;;3.10;1.50;;;20.90;88.10;;;;;;5094338;28;20438;-82
2023/09/21 06:49:11;;;;;;;2.42;1.38;;;20.90;88.00;;;;;;5095736;28;20054;-81
2023/09/21 06:51:37;;;;;;;2.88;1.42;;;20.90;87.80;;;;;;5094320;28;20024;-81
2023/09/21 06:54:03;;;;;;;2.38;1.33;;;21.00;87.60;;;;;;5094023;28;20564;-82
2023/09/21 06:56:31;;;;;;;2.03;1.30;;;21.10;87.60;;;;;;5095599;28;20024;-82
2023/09/21 06:58:57;;;;;;;2.40;1.40;;;21.10;87.40;;;;;;5094251;28;20502;-82
2023/09/21 07:01:23;;;;;;;2.50;1.50;;;21.10;87.20;;;;;;5094197;28;20115;-82
2023/09/21 07:03:48;;;;;;;3.28;1.60;;;21.20;87.20;;;;;;5093850;28;20028;-81
2023/09/21 07:06:15;;;;;;;2.30;1.30;;;21.10;87.00;;;;;;5094291;28;20453;-81
2023/09/21 07:08:40;;;;;;;2.58;1.27;;;21.10;86.90;;;;;;5094078;28;20024;-82
2023/09/21 07:11:06;;;;;;;2.45;1.42;;;21.10;86.90;;;;;;5095183;28;20055;-82
2023/09/21 07:13:32;;;;;;;3.40;1.40;;;21.10;86.80;;;;;;5093689;28;20085;-81
2023/09/21 07:15:58;;;;;;;2.65;1.45;;;21.10;87.00;;;;;;5093862;28;20020;-82
2023/09/21 07:18:25;;;;;;;3.35;1.52;;;21.10;87.00;;;;;;5093978;28;20111;-81
2023/09/21 07:20:52;;;;;;;2.30;1.38;;;21.10;86.90;;;;;;5093757;28;20126;-81
2023/09/21 07:23:18;;;;;;;2.67;1.55;;;21.20;86.80;;;;;;5094834;28;20103;-82
2023/09/21 07:25:43;;;;;;;3.20;1.60;;;21.20;86.70;;;;;;5093720;28;20055;-81
2023/09/21 07:28:09;;;;;;;2.95;1.50;;;21.20;86.70;;;;;;5094988;28;20054;-82
2023/09/21 07:30:38;;;;;;;3.20;1.67;;;21.30;86.60;;;;;;5093952;28;20073;-82
2023/09/21 07:33:06;;;;;;;3.03;1.60;;;21.30;86.70;;;;;;5093246;28;20533;-82
2023/09/21 07:35:31;;;;;;;2.92;1.50;;;21.20;86.90;;;;;;5093645;28;20055;-82
2023/09/21 07:37:57;;;;;;;3.25;1.60;;;21.20;87.10;;;;;;5093503;28;20031;-82
2023/09/21 07:40:22;;;;;;;3.00;1.50;;;21.10;87.20;;;;;;5094666;28;20020;-82
2023/09/21 07:42:51;;;;;;;3.58;1.63;;;21.10;87.30;;;;;;5093162;28;20024;-82
2023/09/21 07:45:16;;;;;;;2.42;1.45;;;21.20;87.20;;;;;;5093304;28;20123;-82
2023/09/21 07:47:43;;;;;;;2.95;1.70;;;21.20;87.10;;;;;;5093275;28;20494;-82
2023/09/21 07:50:09;;;;;;;3.63;1.70;;;21.30;87.10;;;;;;5092885;28;20059;-82
2023/09/21 07:52:36;;;;;;;2.90;1.52;;;21.30;87.00;;;;;;5092892;28;20054;-82
2023/09/21 07:55:03;;;;;;;2.30;1.40;;;21.30;87.00;;;;;;5093039;28;20027;-81
2023/09/21 07:57:39;;;;;;;2.22;1.40;;;21.20;86.80;;;;;;5093033;28;20107;-82
2023/09/21 08:00:06;;;;;;;2.75;1.55;;;21.30;86.80;;;;;;5093164;28;20119;-81
2023/09/21 08:02:32;;;;;;;3.85;1.58;;;21.30;86.80;;;;;;5092762;28;20062;-81
2023/09/21 08:04:58;;;;;;;2.97;1.45;;;21.30;87.00;;;;;;5092769;28;20078;-82
2023/09/21 08:07:27;;;;;;;2.97;1.50;;;21.20;87.10;;;;;;5092952;28;20118;-81
2023/09/21 08:09:54;;;;;;;3.38;1.52;;;21.20;87.20;;;;;;5094119;28;20126;-81
2023/09/21 08:12:24;;;;;;;3.15;1.60;;;21.20;87.30;;;;;;5093859;28;20030;-81
2023/09/21 08:14:50;;;;;;;2.90;1.50;;;21.20;87.40;;;;;;5092629;28;20111;-81
2023/09/21 08:17:16;;;;;;;2.33;1.33;;;21.20;87.60;;;;;;5092533;28;20115;-82
2023/09/21 08:19:41;;;;;;;2.13;1.40;;;21.30;87.20;;;;;;5092936;28;20120;-81
2023/09/21 08:22:07;;;;;;;2.78;1.55;;;21.30;86.80;;;;;;5092552;28;20024;-80
2023/09/21 08:24:35;;;;;;;3.08;1.50;;;21.40;86.90;;;;;;5093588;28;20051;-81
2023/09/21 08:27:02;;;;;;;2.45;1.33;;;21.40;86.60;;;;;;5092591;28;20030;-81
2023/09/21 08:29:28;;;;;;;3.35;1.50;;;21.50;86.50;;;;;;5092467;28;20043;-83
2023/09/21 08:31:53;;;;;;;3.30;1.60;;;21.50;86.30;;;;;;5092461;28;20020;-81
2023/09/21 08:34:19;;;;;;;3.28;1.67;;;21.60;86.30;;;;;;5091919;28;20035;-81
2023/09/21 08:36:44;;;;;;;2.85;1.60;;;21.60;86.20;;;;;;5093605;28;20096;-82
2023/09/21 08:39:10;;;;;;;3.00;1.50;;;21.60;86.20;;;;;;5092295;28;20024;-81
2023/09/21 08:41:44;;;;;;;3.20;1.70;;;21.70;86.00;;;;;;5092275;28;20440;-81
2023/09/21 08:44:11;;;;;;;2.88;1.58;;;21.80;85.90;;;;;;5092353;28;20030;-81
2023/09/21 08:46:38;;;;;;;2.72;1.50;;;21.80;85.80;;;;;;5093413;28;20032;-81
2023/09/21 08:49:07;;;;;;;3.60;1.63;;;21.80;85.80;;;;;;5091995;28;20028;-81
2023/09/21 08:51:37;;;;;;;2.50;1.52;;;21.80;85.60;;;;;;5091701;28;20024;-81
2023/09/21 08:54:06;;;;;;;2.30;1.40;;;21.80;85.50;;;;;;5091938;28;20134;-82
2023/09/21 08:56:33;;;;;;;3.03;1.70;;;21.80;85.70;;;;;;5091964;28;20476;-81
2023/09/21 08:59:01;;;;;;;2.88;1.67;;;21.80;86.00;;;;;;5093321;28;20024;-81
2023/09/21 09:01:27;;;;;;;2.88;1.63;;;21.70;86.40;;;;;;5092157;28;20020;-82
2023/09/21 09:03:53;;;;;;;2.95;1.50;;;21.60;86.60;;;;;;5092461;28;20032;-81
2023/09/21 09:06:19;;;;;;;3.33;1.40;;;21.60;86.80;;;;;;5091914;28;20438;-82
2023/09/21 09:08:46;;;;;;;2.88;1.42;;;21.50;87.00;;;;;;5092034;28;20085;-83
2023/09/21 09:11:34;;;;;;;2.25;1.33;;;21.50;87.10;;;;;;5091695;28;20483;-81
2023/09/21 09:14:01;;;;;;;2.40;1.40;;;21.50;87.20;;;;;;5091380;28;20038;-82
2023/09/21 09:16:30;;;;;;;2.78;1.50;;;21.50;87.20;;;;;;5091633;28;20024;-81
2023/09/21 09:18:57;;;;;;;2.00;1.50;;;21.50;87.30;;;;;;5091538;28;20069;-82
2023/09/21 09:21:25;;;;;;;2.42;1.40;;;21.50;87.30;;;;;;5092973;28;20016;-81
2023/09/21 09:23:50;;;;;;;2.53;1.40;;;21.50;87.40;;;;;;5091485;28;20400;-81
2023/09/21 09:26:18;;;;;;;2.83;1.40;;;21.40;87.50;;;;;;5091557;28;20034;-81
2023/09/21 09:28:43;;;;;;;2.45;1.30;;;21.40;87.70;;;;;;5091576;28;20052;-81
2023/09/21 09:31:11;;;;;;;2.40;1.48;;;21.40;87.80;;;;;;5092710;28;20035;-82
2023/09/21 09:33:38;;;;;;;2.55;1.40;;;21.40;87.90;;;;;;5090911;28;20035;-82
2023/09/21 09:36:04;;;;;;;2.47;1.35;;;21.40;87.90;;;;;;5092709;28;20111;-81
2023/09/21 09:38:33;;;;;;;2.92;1.50;;;21.30;87.80;;;;;;5092897;28;20080;-81
2023/09/21 09:41:04;;;;;;;2.90;1.77;;;21.40;87.90;;;;;;5092644;28;20024;-81
2023/09/21 09:43:30;;;;;;;2.88;1.52;;;21.40;87.80;;;;;;5092442;28;20030;-81
2023/09/21 09:45:58;;;;;;;2.33;1.40;;;21.40;87.80;;;;;;5091469;28;20035;-81
2023/09/21 09:48:25;;;;;;;2.33;1.25;;;21.40;87.80;;;;;;5091220;28;20040;-81
2023/09/21 09:50:57;;;;;;;2.90;1.35;;;21.40;87.60;;;;;;5092148;28;20112;-81
2023/09/21 09:53:24;;;;;;;3.08;1.30;;;21.40;87.70;;;;;;5091096;28;20051;-82
2023/09/21 09:55:53;;;;;;;3.30;1.60;;;21.40;87.70;;;;;;5091326;28;20046;-82
2023/09/21 09:58:20;;;;;;;2.80;1.35;;;21.40;87.60;;;;;;5091237;28;20020;-82
2023/09/21 10:00:46;;;;;;;2.50;1.35;;;21.40;87.70;;;;;;5091217;28;20024;-81
2023/09/21 10:03:12;;;;;;;1.90;1.33;;;21.40;87.60;;;;;;5090799;28;20480;-82
2023/09/21 10:05:39;;;;;;;2.30;1.50;;;21.50;87.70;;;;;;5091180;28;20035;-81
2023/09/21 10:08:07;;;;;;;2.65;1.33;;;21.50;87.60;;;;;;5091304;28;20024;-82
2023/09/21 10:10:44;;;;;;;2.63;1.35;;;21.50;87.70;;;;;;5091071;28;20020;-82
2023/09/21 10:13:10;;;;;;;2.53;1.30;;;21.50;87.80;;;;;;5090823;28;20062;-81
2023/09/21 10:15:36;;;;;;;2.72;1.40;;;21.50;87.70;;;;;;5091914;28;20024;-81
2023/09/21 10:18:02;;;;;;;2.03;1.30;;;21.50;87.80;;;;;;5095075;28;20024;-82
2023/09/21 10:20:32;;;;;;;2.50;1.20;;;21.50;87.80;;;;;;5096197;28;20095;-81
2023/09/21 10:23:01;;;;;;;2.28;1.40;;;21.50;87.90;;;;;;5094753;28;20024;-82
2023/09/21 10:25:45;;;;;;;2.40;1.40;;;21.40;88.00;;;;;;5096162;28;20027;-81
2023/09/21 10:28:28;;;;;;;2.20;1.30;;;21.40;88.10;;;;;;5096061;28;20021;-81
2023/09/21 10:31:14;;;;;;;2.63;1.40;;;21.40;88.10;;;;;;5095805;28;20476;-81
2023/09/21 10:33:52;;;;;;;2.13;1.20;;;21.40;88.10;;;;;;5080091;28;20079;-81
2023/09/21 10:36:27;;;;;;;3.03;1.50;;;21.40;88.10;;;;;;5094691;28;20056;-82
2023/09/21 10:39:11;;;;;;;2.08;1.20;;;21.40;88.00;;;;;;5095881;28;20063;-83
2023/09/21 10:41:40;;;;;;;2.30;1.30;;;21.40;88.00;;;;;;5094656;28;20055;-82
2023/09/21 10:44:13;;;;;;;2.75;1.50;;;21.40;88.00;;;;;;5094206;28;20501;-81
2023/09/21 10:46:41;;;;;;;2.22;1.30;;;21.40;88.00;;;;;;5095928;28;20028;-81
2023/09/21 10:49:13;;;;;;;2.53;1.33;;;21.40;88.00;;;;;;5094322;28;20020;-82
2023/09/21 10:51:39;;;;;;;2.20;1.33;;;21.40;88.10;;;;;;5095301;28;20676;-81
2023/09/21 10:54:10;;;;;;;2.35;1.30;;;21.40;88.10;;;;;;5093937;28;20024;-81
2023/09/21 10:56:41;;;;;;;3.25;1.45;;;21.40;88.10;;;;;;5094282;28;20108;-82
2023/09/21 10:59:08;;;;;;;1.77;1.20;;;21.40;88.20;;;;;;5094366;28;20115;-80
2023/09/21 11:01:34;;;;;;;2.90;1.33;;;21.40;88.20;;;;;;5094125;28;20032;-80
2023/09/21 11:04:00;;;;;;;2.40;1.30;;;21.40;88.30;;;;;;5093837;28;20028;-82
2023/09/21 11:06:28;;;;;;;1.88;1.08;;;21.40;88.40;;;;;;5093924;28;20118;-81
2023/09/21 11:08:55;;;;;;;2.17;1.20;;;21.40;88.40;;;;;;5094194;28;20027;-81
2023/09/21 11:11:21;;;;;;;2.45;1.27;;;21.40;88.50;;;;;;5094065;28;20111;-81
2023/09/21 11:13:51;;;;;;;2.47;1.40;;;21.30;88.50;;;;;;5093619;28;20564;-81
2023/09/21 11:16:17;;;;;;;2.00;1.10;;;21.30;88.60;;;;;;5093921;28;20585;-81
2023/09/21 11:18:43;;;;;;;2.10;1.40;;;21.30;88.60;;;;;;5093843;28;20511;-81
2023/09/21 11:21:09;;;;;;;2.58;1.42;;;21.30;88.70;;;;;;5093893;28;20024;-81
2023/09/21 11:23:35;;;;;;;2.42;1.20;;;21.30;88.70;;;;;;5094858;28;20089;-81
2023/09/21 11:26:02;;;;;;;2.88;1.45;;;21.40;88.80;;;;;;5093564;28;20510;-81
2023/09/21 11:28:32;;;;;;;2.03;1.35;;;21.30;88.70;;;;;;5093584;28;20407;-81
2023/09/21 11:30:58;;;;;;;2.63;1.45;;;21.30;88.70;;;;;;5094792;28;20023;-81
2023/09/21 11:33:25;;;;;;;2.55;1.40;;;21.30;88.60;;;;;;5093106;28;20028;-81
2023/09/21 11:35:52;;;;;;;2.65;1.30;;;21.30;88.60;;;;;;5093475;28;20031;-82
2023/09/21 11:38:17;;;;;;;3.00;1.60;;;21.30;88.60;;;;;;5093480;28;20476;-81
2023/09/21 11:40:43;;;;;;;1.42;1.08;;;21.30;88.70;;;;;;5093391;28;20028;-81
2023/09/21 11:43:20;;;;;;;2.95;1.40;;;21.30;88.70;;;;;;5093173;28;20020;-81
2023/09/21 11:45:48;;;;;;;2.33;1.40;;;21.20;88.70;;;;;;5093360;28;20054;-81
2023/09/21 11:48:15;;;;;;;2.15;1.17;;;21.30;88.80;;;;;;5093322;28;20480;-81
2023/09/21 11:50:44;;;;;;;1.88;1.20;;;21.20;88.90;;;;;;5093132;28;20024;-81
2023/09/21 11:53:10;;;;;;;2.28;1.30;;;21.20;88.90;;;;;;5092822;28;20024;-82
2023/09/21 11:55:40;;;;;;;2.35;1.35;;;21.20;89.00;;;;;;5093170;28;20028;-81
2023/09/21 11:58:11;;;;;;;2.40;1.40;;;21.20;89.00;;;;;;5093152;28;20024;-81
2023/09/21 12:00:44;;;;;;;2.15;1.20;;;21.20;89.00;;;;;;5093208;28;20020;-80
2023/09/21 12:03:14;;;;;;;2.72;1.63;;;21.20;89.00;;;;;;5094072;28;20400;-81
2023/09/21 12:05:46;;;;;;;2.00;1.30;;;21.20;89.00;;;;;;5093061;28;20437;-82
2023/09/21 12:08:14;;;;;;;1.88;1.20;;;21.20;89.00;;;;;;5092951;28;20051;-81
2023/09/21 12:10:48;;;;;;;2.88;1.10;;;21.20;89.00;;;;;;5092859;28;20032;-81
2023/09/21 12:13:14;;;;;;;3.22;1.33;;;21.20;89.00;;;;;;5092372;28;20028;-81
2023/09/21 12:15:41;;;;;;;2.78;1.40;;;21.20;89.00;;;;;;5092809;28;20028;-82
2023/09/21 12:18:07;;;;;;;2.15;1.40;;;21.20;89.10;;;;;;5094011;28;20023;-81
2023/09/21 12:20:34;;;;;;;2.40;1.20;;;21.20;89.10;;;;;;5092611;28;20024;-80
2023/09/21 12:22:59;;;;;;;2.00;1.20;;;21.20;89.20;;;;;;5092536;28;20030;-81
2023/09/21 12:25:25;;;;;;;2.72;1.33;;;21.20;89.10;;;;;;5092624;28;20020;-80
2023/09/21 12:27:51;;;;;;;2.03;1.27;;;21.20;89.00;;;;;;5093835;28;20020;-81
2023/09/21 12:30:17;;;;;;;2.10;1.20;;;21.20;89.00;;;;;;5092505;28;20020;-81
2023/09/21 12:32:43;;;;;;;2.13;1.20;;;21.30;89.00;;;;;;5091978;28;20092;-81
2023/09/21 12:35:10;;;;;;;1.83;1.10;;;21.20;89.00;;;;;;5093563;28;20050;-80
2023/09/21 12:37:37;;;;;;;2.42;1.30;;;21.20;89.00;;;;;;5093374;28;20381;-81
2023/09/21 12:40:11;;;;;;;2.10;1.20;;;21.20;89.10;;;;;;5093185;28;20048;-81
2023/09/21 12:42:38;;;;;;;1.67;1.00;;;21.20;89.20;;;;;;5093312;28;20020;-81
2023/09/21 12:45:04;;;;;;;3.20;1.25;;;21.20;89.30;;;;;;5092094;28;20028;-82
2023/09/21 12:47:31;;;;;;;1.95;1.20;;;21.20;89.30;;;;;;5092176;28;20024;-81
2023/09/21 12:49:56;;;;;;;2.50;1.27;;;21.20;89.40;;;;;;5091814;28;20027;-81